sensor_id;sensor_type;location;lat;lon;timestamp;pressure;altitude;pressure_sealevel;temperature;humidity
5883;BME280;2967;51.488;6.618;2022-10-04T00:00:48;102098.44;;;12.45;100.00
5883;BME280;2967;51.488;6.618;2022-10-04T00:05:52;102100.00;;;12.49;100.00
5883;BME280;2967;51.488;6.618;2022-10-04T00:11:06;102100.47;;;12.40;100.00
5883;BME280;2967;51.488;6.618;2022-10-04T00:16:18;102094.88;;;12.29;100.00
5883;BME280;2967;51.488;6.618;2022-10-04T00:21:22;102093.75;;;12.33;100.00
5883;BME280;2967;51.488;6.618;2022-10-04T00:32:28;102084.69;;;12.37;100.00
5883;BME280;2967;51.488;6.618;2022-10-04T00:37:54;102095.22;;;12.22;100.00
5883;BME280;2967;51.488;6.618;2022-10-04T00:42:58;102087.22;;;12.23;100.00
5883;BME280;2967;51.488;6.618;2022-10-04T00:53:44;102079.72;;;12.14;100.00
5883;BME280;2967;51.488;6.618;2022-10-04T00:59:07;102072.44;;;12.01;100.00
5883;BME280;2967;51.488;6.618;2022-10-04T01:04:25;102069.44;;;12.08;100.00
5883;BME280;2967;51.488;6.618;2022-10-04T01:09:30;102063.66;;;12.00;100.00
5883;BME280;2967;51.488;6.618;2022-10-04T01:14:40;102058.25;;;12.19;100.00
5883;BME280;2967;51.488;6.618;2022-10-04T01:19:51;102065.63;;;12.14;100.00
5883;BME280;2967;51.488;6.618;2022-10-04T01:24:56;102063.19;;;12.09;100.00
5883;BME280;2967;51.488;6.618;2022-10-04T01:29:59;102059.72;;;12.07;100.00
5883;BME280;2967;51.488;6.618;2022-10-04T01:35:02;102042.56;;;11.97;100.00
5883;BME280;2967;51.488;6.618;2022-10-04T01:40:08;102044.69;;;12.08;100.00
5883;BME280;2967;51.488;6.618;2022-10-04T01:45:15;102000.53;;;11.90;100.00
5883;BME280;2967;51.488;6.618;2022-10-04T01:50:24;102030.88;;;12.18;100.00
5883;BME280;2967;51.488;6.618;2022-10-04T01:55:34;102029.16;;;12.17;100.00
5883;BME280;2967;51.488;6.618;2022-10-04T02:00:44;102013.50;;;12.13;100.00
5883;BME280;2967;51.488;6.618;2022-10-04T02:05:51;102010.44;;;12.03;100.00
5883;BME280;2967;51.488;6.618;2022-10-04T02:11:00;101997.66;;;12.11;100.00
5883;BME280;2967;51.488;6.618;2022-10-04T02:16:07;101985.63;;;12.04;100.00
5883;BME280;2967;51.488;6.618;2022-10-04T02:21:12;101981.56;;;12.14;100.00
5883;BME280;2967;51.488;6.618;2022-10-04T02:26:17;101974.25;;;12.19;100.00
5883;BME280;2967;51.488;6.618;2022-10-04T02:31:22;101980.16;;;12.24;100.00
5883;BME280;2967;51.488;6.618;2022-10-04T02:36:44;101979.91;;;12.29;100.00
5883;BME280;2967;51.488;6.618;2022-10-04T02:41:56;101957.88;;;12.11;100.00
5883;BME280;2967;51.488;6.618;2022-10-04T02:47:06;101979.38;;;12.22;100.00
5883;BME280;2967;51.488;6.618;2022-10-04T02:52:16;101979.63;;;12.18;100.00
5883;BME280;2967;51.488;6.618;2022-10-04T02:57:23;101962.06;;;12.15;100.00
5883;BME280;2967;51.488;6.618;2022-10-04T03:02:27;101933.38;;;12.06;100.00
5883;BME280;2967;51.488;6.618;2022-10-04T03:07:31;101951.50;;;11.98;100.00
5883;BME280;2967;51.488;6.618;2022-10-04T03:12:37;101943.69;;;11.95;100.00
5883;BME280;2967;51.488;6.618;2022-10-04T03:17:40;101944.78;;;11.91;100.00
5883;BME280;2967;51.488;6.618;2022-10-04T03:22:44;101936.19;;;12.03;100.00
5883;BME280;2967;51.488;6.618;2022-10-04T03:27:49;101912.63;;;11.97;100.00
5883;BME280;2967;51.488;6.618;2022-10-04T03:32:53;101936.13;;;12.05;100.00
5883;BME280;2967;51.488;6.618;2022-10-04T03:37:57;101932.34;;;12.09;100.00
5883;BME280;2967;51.488;6.618;2022-10-04T03:43:05;101929.88;;;12.06;100.00
5883;BME280;2967;51.488;6.618;2022-10-04T03:48:12;101916.78;;;12.03;100.00
5883;BME280;2967;51.488;6.618;2022-10-04T03:53:26;101927.56;;;12.15;100.00
5883;BME280;2967;51.488;6.618;2022-10-04T03:58:30;101916.38;;;12.10;100.00
5883;BME280;2967;51.488;6.618;2022-10-04T04:03:43;101918.59;;;12.18;100.00
5883;BME280;2967;51.488;6.618;2022-10-04T04:08:51;101918.56;;;12.02;100.00
5883;BME280;2967;51.488;6.618;2022-10-04T04:14:00;101918.56;;;12.02;100.00
5883;BME280;2967;51.488;6.618;2022-10-04T04:19:15;101923.09;;;12.00;100.00
5883;BME280;2967;51.488;6.618;2022-10-04T04:24:24;101916.31;;;11.95;100.00
5883;BME280;2967;51.488;6.618;2022-10-04T04:29:32;101912.03;;;11.92;100.00
5883;BME280;2967;51.488;6.618;2022-10-04T04:34:48;101903.13;;;11.93;100.00
5883;BME280;2967;51.488;6.618;2022-10-04T04:39:53;101896.13;;;11.92;100.00
5883;BME280;2967;51.488;6.618;2022-10-04T04:44:59;101892.00;;;11.87;100.00
5883;BME280;2967;51.488;6.618;2022-10-04T04:50:06;101878.97;;;11.82;100.00
5883;BME280;2967;51.488;6.618;2022-10-04T04:55:16;101873.75;;;11.81;100.00
5883;BME280;2967;51.488;6.618;2022-10-04T05:00:23;101873.50;;;11.85;100.00
5883;BME280;2967;51.488;6.618;2022-10-04T05:05:30;101837.22;;;11.70;100.00
5883;BME280;2967;51.488;6.618;2022-10-04T05:10:33;101873.28;;;11.90;100.00
5883;BME280;2967;51.488;6.618;2022-10-04T05:15:39;101871.03;;;11.82;100.00
5883;BME280;2967;51.488;6.618;2022-10-04T05:20:45;101875.09;;;11.72;100.00
5883;BME280;2967;51.488;6.618;2022-10-04T05:25:50;101872.75;;;11.66;100.00
5883;BME280;2967;51.488;6.618;2022-10-04T05:31:03;101875.09;;;11.72;100.00
5883;BME280;2967;51.488;6.618;2022-10-04T05:36:30;101868.03;;;11.73;100.00
5883;BME280;2967;51.488;6.618;2022-10-04T05:41:39;101876.50;;;11.79;100.00
5883;BME280;2967;51.488;6.618;2022-10-04T05:46:47;101880.72;;;11.66;100.00
5883;BME280;2967;51.488;6.618;2022-10-04T05:51:52;101875.56;;;11.63;100.00
5883;BME280;2967;51.488;6.618;2022-10-04T06:02:36;101863.50;;;11.58;100.00
5883;BME280;2967;51.488;6.618;2022-10-04T06:07:48;101871.50;;;11.56;100.00
5883;BME280;2967;51.488;6.618;2022-10-04T06:12:58;101879.09;;;11.64;100.00
5883;BME280;2967;51.488;6.618;2022-10-04T06:18:21;101872.09;;;11.63;100.00
5883;BME280;2967;51.488;6.618;2022-10-04T06:23:32;101884.22;;;11.67;100.00
5883;BME280;2967;51.488;6.618;2022-10-04T06:28:40;101882.34;;;11.69;100.00
5883;BME280;2967;51.488;6.618;2022-10-04T06:34:06;101888.13;;;11.77;100.00
5883;BME280;2967;51.488;6.618;2022-10-04T06:44:58;101885.00;;;11.86;100.00
5883;BME280;2967;51.488;6.618;2022-10-04T06:50:20;101887.47;;;11.89;100.00
5883;BME280;2967;51.488;6.618;2022-10-04T06:55:47;101885.97;;;12.00;100.00
5883;BME280;2967;51.488;6.618;2022-10-04T07:01:01;101898.06;;;12.06;100.00
5883;BME280;2967;51.488;6.618;2022-10-04T07:06:08;101901.06;;;12.15;100.00
5883;BME280;2967;51.488;6.618;2022-10-04T07:11:14;101896.09;;;12.09;100.00
5883;BME280;2967;51.488;6.618;2022-10-04T07:16:33;101897.06;;;12.24;100.00
5883;BME280;2967;51.488;6.618;2022-10-04T07:21:44;101901.88;;;12.33;100.00
5883;BME280;2967;51.488;6.618;2022-10-04T07:26:52;101897.84;;;12.41;100.00
5883;BME280;2967;51.488;6.618;2022-10-04T07:32:10;101895.19;;;12.41;100.00
5883;BME280;2967;51.488;6.618;2022-10-04T07:37:16;101901.34;;;12.42;100.00
5883;BME280;2967;51.488;6.618;2022-10-04T07:42:27;101899.31;;;12.47;100.00
5883;BME280;2967;51.488;6.618;2022-10-04T07:47:31;101907.03;;;12.51;100.00
5883;BME280;2967;51.488;6.618;2022-10-04T07:52:44;101906.16;;;12.51;100.00
5883;BME280;2967;51.488;6.618;2022-10-04T07:58:01;101907.53;;;12.58;100.00
5883;BME280;2967;51.488;6.618;2022-10-04T08:03:19;101904.38;;;12.67;100.00
5883;BME280;2967;51.488;6.618;2022-10-04T08:08:44;101899.50;;;12.75;100.00
5883;BME280;2967;51.488;6.618;2022-10-04T08:13:58;101883.38;;;12.93;100.00
5883;BME280;2967;51.488;6.618;2022-10-04T08:19:26;101879.25;;;13.18;100.00
5883;BME280;2967;51.488;6.618;2022-10-04T08:24:43;101885.31;;;13.20;100.00
5883;BME280;2967;51.488;6.618;2022-10-04T08:30:01;101890.22;;;13.13;100.00
5883;BME280;2967;51.488;6.618;2022-10-04T08:35:21;101893.00;;;13.11;100.00
5883;BME280;2967;51.488;6.618;2022-10-04T08:40:50;101890.16;;;13.14;100.00
5883;BME280;2967;51.488;6.618;2022-10-04T08:46:36;101879.47;;;13.29;100.00
5883;BME280;2967;51.488;6.618;2022-10-04T08:52:26;101892.19;;;13.54;100.00
5883;BME280;2967;51.488;6.618;2022-10-04T08:57:47;101877.22;;;13.81;100.00
5883;BME280;2967;51.488;6.618;2022-10-04T09:08:54;101876.47;;;14.07;100.00
5883;BME280;2967;51.488;6.618;2022-10-04T09:14:19;101874.59;;;14.09;100.00
5883;BME280;2967;51.488;6.618;2022-10-04T09:19:35;101873.28;;;14.30;100.00
5883;BME280;2967;51.488;6.618;2022-10-04T09:25:04;101874.47;;;14.52;100.00
5883;BME280;2967;51.488;6.618;2022-10-04T09:30:16;101877.41;;;14.62;100.00
5883;BME280;2967;51.488;6.618;2022-10-04T09:35:49;101869.81;;;14.56;100.00
5883;BME280;2967;51.488;6.618;2022-10-04T09:46:52;101860.47;;;14.63;100.00
5883;BME280;2967;51.488;6.618;2022-10-04T09:52:10;101861.59;;;14.73;100.00
5883;BME280;2967;51.488;6.618;2022-10-04T09:57:22;101866.13;;;14.85;100.00
5883;BME280;2967;51.488;6.618;2022-10-04T10:02:44;101830.09;;;14.79;100.00
5883;BME280;2967;51.488;6.618;2022-10-04T10:07:59;101848.06;;;15.02;100.00
5883;BME280;2967;51.488;6.618;2022-10-04T10:13:21;101850.34;;;15.08;100.00
5883;BME280;2967;51.488;6.618;2022-10-04T10:19:02;101846.19;;;15.17;100.00
5883;BME280;2967;51.488;6.618;2022-10-04T10:24:29;101847.09;;;15.30;100.00
5883;BME280;2967;51.488;6.618;2022-10-04T10:29:47;101837.72;;;15.37;100.00
5883;BME280;2967;51.488;6.618;2022-10-04T10:35:08;101846.28;;;15.42;100.00
5883;BME280;2967;51.488;6.618;2022-10-04T10:40:45;101847.06;;;15.56;100.00
5883;BME280;2967;51.488;6.618;2022-10-04T10:46:01;101846.84;;;15.72;100.00
5883;BME280;2967;51.488;6.618;2022-10-04T10:51:15;101842.25;;;15.74;100.00
5883;BME280;2967;51.488;6.618;2022-10-04T10:56:34;101828.28;;;15.83;100.00
5883;BME280;2967;51.488;6.618;2022-10-04T11:01:52;101826.69;;;15.93;100.00
5883;BME280;2967;51.488;6.618;2022-10-04T11:13:09;101811.63;;;16.52;100.00
5883;BME280;2967;51.488;6.618;2022-10-04T11:18:48;101819.66;;;16.99;100.00
5883;BME280;2967;51.488;6.618;2022-10-04T11:24:39;101812.28;;;17.37;100.00
5883;BME280;2967;51.488;6.618;2022-10-04T11:29:55;101812.00;;;17.64;98.19
5883;BME280;2967;51.488;6.618;2022-10-04T11:35:33;101799.81;;;17.93;97.79
5883;BME280;2967;51.488;6.618;2022-10-04T11:40:55;101805.66;;;18.20;97.45
5883;BME280;2967;51.488;6.618;2022-10-04T11:46:12;101803.59;;;18.45;96.86
5883;BME280;2967;51.488;6.618;2022-10-04T11:51:53;101809.63;;;18.69;92.91
5883;BME280;2967;51.488;6.618;2022-10-04T11:57:20;101795.06;;;18.82;91.52
5883;BME280;2967;51.488;6.618;2022-10-04T12:02:54;101787.19;;;19.01;89.89
5883;BME280;2967;51.488;6.618;2022-10-04T12:08:11;101781.66;;;19.14;90.94
5883;BME280;2967;51.488;6.618;2022-10-04T12:13:26;101768.81;;;19.28;89.45
5883;BME280;2967;51.488;6.618;2022-10-04T12:18:58;101754.22;;;19.42;87.74
5883;BME280;2967;51.488;6.618;2022-10-04T12:24:14;101758.50;;;19.54;86.72
5883;BME280;2967;51.488;6.618;2022-10-04T12:29:37;101755.16;;;19.61;87.53
5883;BME280;2967;51.488;6.618;2022-10-04T12:34:49;101739.94;;;19.71;85.70
5883;BME280;2967;51.488;6.618;2022-10-04T12:40:06;101735.50;;;19.91;86.46
5883;BME280;2967;51.488;6.618;2022-10-04T12:50:53;101733.97;;;20.47;85.30
5883;BME280;2967;51.488;6.618;2022-10-04T12:56:21;101732.44;;;20.54;84.41
5883;BME280;2967;51.488;6.618;2022-10-04T13:01:40;101733.13;;;20.84;84.98
5883;BME280;2967;51.488;6.618;2022-10-04T13:07:02;101726.81;;;20.95;84.07
5883;BME280;2967;51.488;6.618;2022-10-04T13:12:25;101713.34;;;20.76;84.59
5883;BME280;2967;51.488;6.618;2022-10-04T13:17:38;101695.22;;;20.97;84.51
5883;BME280;2967;51.488;6.618;2022-10-04T13:22:49;101690.69;;;21.07;84.59
5883;BME280;2967;51.488;6.618;2022-10-04T13:28:00;101684.38;;;21.35;83.09
5883;BME280;2967;51.488;6.618;2022-10-04T13:33:13;101686.38;;;21.23;83.05
5883;BME280;2967;51.488;6.618;2022-10-04T13:50:05;101664.50;;;20.80;83.42
5883;BME280;2967;51.488;6.618;2022-10-04T13:55:22;101668.63;;;20.46;84.16
5883;BME280;2967;51.488;6.618;2022-10-04T14:01:12;101655.16;;;20.18;86.24
5883;BME280;2967;51.488;6.618;2022-10-04T14:12:35;101644.88;;;19.83;83.36
5883;BME280;2967;51.488;6.618;2022-10-04T14:18:16;101652.50;;;19.78;84.71
5883;BME280;2967;51.488;6.618;2022-10-04T14:23:45;101650.06;;;19.66;85.37
5883;BME280;2967;51.488;6.618;2022-10-04T14:29:28;101635.47;;;19.59;86.76
5883;BME280;2967;51.488;6.618;2022-10-04T14:34:48;101632.47;;;19.52;84.89
5883;BME280;2967;51.488;6.618;2022-10-04T14:40:13;101631.28;;;19.36;86.73
5883;BME280;2967;51.488;6.618;2022-10-04T14:45:37;101622.66;;;19.32;84.55
5883;BME280;2967;51.488;6.618;2022-10-04T14:50:52;101617.84;;;19.26;85.34
5883;BME280;2967;51.488;6.618;2022-10-04T15:01:44;101608.56;;;19.10;87.44
5883;BME280;2967;51.488;6.618;2022-10-04T15:07:16;101612.63;;;19.04;88.23
5883;BME280;2967;51.488;6.618;2022-10-04T15:12:40;101604.25;;;18.98;88.93
5883;BME280;2967;51.488;6.618;2022-10-04T15:18:22;101625.75;;;18.87;89.54
5883;BME280;2967;51.488;6.618;2022-10-04T15:23:33;101628.41;;;18.77;90.32
5883;BME280;2967;51.488;6.618;2022-10-04T15:28:55;101623.16;;;18.76;88.63
5883;BME280;2967;51.488;6.618;2022-10-04T15:34:10;101625.91;;;18.65;85.11
5883;BME280;2967;51.488;6.618;2022-10-04T15:39:47;101610.22;;;18.61;84.66
5883;BME280;2967;51.488;6.618;2022-10-04T15:45:45;101614.00;;;18.58;85.58
5883;BME280;2967;51.488;6.618;2022-10-04T15:51:00;101624.16;;;18.55;86.24
5883;BME280;2967;51.488;6.618;2022-10-04T15:56:10;101629.50;;;18.55;86.56
5883;BME280;2967;51.488;6.618;2022-10-04T16:01:30;101624.78;;;18.47;87.54
5883;BME280;2967;51.488;6.618;2022-10-04T16:06:45;101620.19;;;18.38;86.81
5883;BME280;2967;51.488;6.618;2022-10-04T16:12:01;101614.84;;;18.27;88.24
5883;BME280;2967;51.488;6.618;2022-10-04T16:17:23;101621.47;;;18.23;89.53
5883;BME280;2967;51.488;6.618;2022-10-04T16:22:31;101609.47;;;18.07;89.15
5883;BME280;2967;51.488;6.618;2022-10-04T16:27:55;101614.69;;;18.08;91.39
5883;BME280;2967;51.488;6.618;2022-10-04T16:33:19;101600.13;;;18.01;91.90
5883;BME280;2967;51.488;6.618;2022-10-04T16:38:28;101604.53;;;17.91;92.97
5883;BME280;2967;51.488;6.618;2022-10-04T16:43:36;101605.53;;;17.79;94.61
5883;BME280;2967;51.488;6.618;2022-10-04T16:48:47;101597.03;;;17.63;95.31
5883;BME280;2967;51.488;6.618;2022-10-04T16:53:57;101601.31;;;17.55;96.59
5883;BME280;2967;51.488;6.618;2022-10-04T16:59:10;101593.91;;;17.36;97.96
5883;BME280;2967;51.488;6.618;2022-10-04T17:04:24;101587.81;;;17.23;99.59
5883;BME280;2967;51.488;6.618;2022-10-04T17:09:36;101595.84;;;17.01;100.00
5883;BME280;2967;51.488;6.618;2022-10-04T17:15:19;101575.59;;;16.53;100.00
5883;BME280;2967;51.488;6.618;2022-10-04T17:20:28;101621.09;;;16.52;100.00
5883;BME280;2967;51.488;6.618;2022-10-04T17:25:46;101623.13;;;16.37;100.00
5883;BME280;2967;51.488;6.618;2022-10-04T17:30:58;101626.00;;;16.34;100.00
5883;BME280;2967;51.488;6.618;2022-10-04T17:41:43;101633.22;;;16.21;100.00
5883;BME280;2967;51.488;6.618;2022-10-04T17:46:56;101637.41;;;16.13;100.00
5883;BME280;2967;51.488;6.618;2022-10-04T17:52:03;101640.91;;;16.02;100.00
5883;BME280;2967;51.488;6.618;2022-10-04T17:57:28;101645.22;;;15.93;100.00
5883;BME280;2967;51.488;6.618;2022-10-04T18:02:57;101655.34;;;15.88;100.00
5883;BME280;2967;51.488;6.618;2022-10-04T18:08:06;101642.91;;;15.76;100.00
5883;BME280;2967;51.488;6.618;2022-10-04T18:13:21;101654.03;;;15.70;100.00
5883;BME280;2967;51.488;6.618;2022-10-04T18:18:36;101636.53;;;15.66;100.00
5883;BME280;2967;51.488;6.618;2022-10-04T18:23:50;101655.47;;;15.38;100.00
5883;BME280;2967;51.488;6.618;2022-10-04T18:28:58;101645.66;;;15.38;100.00
5883;BME280;2967;51.488;6.618;2022-10-04T18:34:15;101643.19;;;15.23;100.00
5883;BME280;2967;51.488;6.618;2022-10-04T18:39:19;101650.22;;;15.24;100.00
5883;BME280;2967;51.488;6.618;2022-10-04T18:44:26;101643.94;;;15.25;100.00
5883;BME280;2967;51.488;6.618;2022-10-04T18:49:43;101657.91;;;15.16;100.00
5883;BME280;2967;51.488;6.618;2022-10-04T18:54:57;101656.22;;;15.15;100.00
5883;BME280;2967;51.488;6.618;2022-10-04T19:00:09;101655.28;;;15.03;100.00
5883;BME280;2967;51.488;6.618;2022-10-04T19:05:37;101625.72;;;15.06;100.00
5883;BME280;2967;51.488;6.618;2022-10-04T19:10:47;101585.34;;;14.87;100.00
5883;BME280;2967;51.488;6.618;2022-10-04T19:16:05;101627.03;;;15.01;100.00
5883;BME280;2967;51.488;6.618;2022-10-04T19:21:21;101600.91;;;14.93;100.00
5883;BME280;2967;51.488;6.618;2022-10-04T19:26:29;101617.19;;;15.01;100.00
5883;BME280;2967;51.488;6.618;2022-10-04T19:31:42;101633.94;;;14.91;100.00
5883;BME280;2967;51.488;6.618;2022-10-04T19:36:54;101639.97;;;14.68;100.00
5883;BME280;2967;51.488;6.618;2022-10-04T19:42:02;101643.16;;;14.60;100.00
5883;BME280;2967;51.488;6.618;2022-10-04T19:47:18;101632.41;;;14.49;100.00
5883;BME280;2967;51.488;6.618;2022-10-04T19:52:31;101633.34;;;14.48;100.00
5883;BME280;2967;51.488;6.618;2022-10-04T19:57:37;101618.16;;;14.24;100.00
5883;BME280;2967;51.488;6.618;2022-10-04T20:02:42;101632.66;;;14.20;100.00
5883;BME280;2967;51.488;6.618;2022-10-04T20:07:51;101615.94;;;14.30;100.00
5883;BME280;2967;51.488;6.618;2022-10-04T20:18:56;101641.41;;;14.34;100.00
5883;BME280;2967;51.488;6.618;2022-10-04T20:24:02;101627.34;;;14.32;100.00
5883;BME280;2967;51.488;6.618;2022-10-04T20:29:06;101613.28;;;14.30;100.00
5883;BME280;2967;51.488;6.618;2022-10-04T20:34:30;101600.94;;;14.29;100.00
5883;BME280;2967;51.488;6.618;2022-10-04T20:39:57;101604.22;;;14.20;100.00
5883;BME280;2967;51.488;6.618;2022-10-04T20:45:04;101598.78;;;14.22;100.00
5883;BME280;2967;51.488;6.618;2022-10-04T20:50:28;101600.50;;;14.23;100.00
5883;BME280;2967;51.488;6.618;2022-10-04T20:55:34;101597.09;;;14.21;100.00
5883;BME280;2967;51.488;6.618;2022-10-04T21:00:49;101607.75;;;14.21;100.00
5883;BME280;2967;51.488;6.618;2022-10-04T21:06:02;101602.59;;;14.18;100.00
5883;BME280;2967;51.488;6.618;2022-10-04T21:11:14;101623.97;;;14.16;100.00
5883;BME280;2967;51.488;6.618;2022-10-04T21:16:38;101587.03;;;13.85;100.00
5883;BME280;2967;51.488;6.618;2022-10-04T21:21:49;101584.38;;;13.85;100.00
5883;BME280;2967;51.488;6.618;2022-10-04T21:26:54;101617.66;;;14.05;100.00
5883;BME280;2967;51.488;6.618;2022-10-04T21:31:56;101597.94;;;13.95;100.00
5883;BME280;2967;51.488;6.618;2022-10-04T21:37:01;101597.63;;;13.99;100.00
5883;BME280;2967;51.488;6.618;2022-10-04T21:42:04;101594.88;;;14.01;100.00
5883;BME280;2967;51.488;6.618;2022-10-04T21:47:07;101611.56;;;14.03;100.00
5883;BME280;2967;51.488;6.618;2022-10-04T21:52:11;101623.84;;;14.05;100.00
5883;BME280;2967;51.488;6.618;2022-10-04T21:57:13;101622.28;;;13.89;100.00
5883;BME280;2967;51.488;6.618;2022-10-04T22:02:16;101615.09;;;14.03;100.00
5883;BME280;2967;51.488;6.618;2022-10-04T22:07:20;101602.94;;;13.99;100.00
5883;BME280;2967;51.488;6.618;2022-10-04T22:12:23;101593.34;;;13.97;100.00
5883;BME280;2967;51.488;6.618;2022-10-04T22:17:25;101595.56;;;13.90;100.00
5883;BME280;2967;51.488;6.618;2022-10-04T22:22:30;101579.66;;;13.76;100.00
5883;BME280;2967;51.488;6.618;2022-10-04T22:27:39;101609.00;;;13.75;100.00
5883;BME280;2967;51.488;6.618;2022-10-04T22:32:42;101625.13;;;13.86;100.00
5883;BME280;2967;51.488;6.618;2022-10-04T22:37:47;101622.88;;;13.80;100.00
5883;BME280;2967;51.488;6.618;2022-10-04T22:42:51;101575.28;;;13.49;100.00
5883;BME280;2967;51.488;6.618;2022-10-04T22:47:56;101609.88;;;13.75;100.00
5883;BME280;2967;51.488;6.618;2022-10-04T22:53:05;101606.25;;;13.76;100.00
5883;BME280;2967;51.488;6.618;2022-10-04T22:58:10;101599.69;;;13.82;100.00
5883;BME280;2967;51.488;6.618;2022-10-04T23:03:23;101597.56;;;13.87;100.00
5883;BME280;2967;51.488;6.618;2022-10-04T23:08:28;101596.44;;;13.91;100.00
5883;BME280;2967;51.488;6.618;2022-10-04T23:13:31;101598.19;;;14.04;100.00
5883;BME280;2967;51.488;6.618;2022-10-04T23:18:34;101569.19;;;13.87;100.00
5883;BME280;2967;51.488;6.618;2022-10-04T23:23:38;101589.78;;;14.10;100.00
5883;BME280;2967;51.488;6.618;2022-10-04T23:28:40;101592.03;;;14.16;100.00
5883;BME280;2967;51.488;6.618;2022-10-04T23:33:43;101579.69;;;14.15;100.00
5883;BME280;2967;51.488;6.618;2022-10-04T23:38:49;101578.34;;;14.22;100.00
5883;BME280;2967;51.488;6.618;2022-10-04T23:43:53;101563.97;;;14.25;100.00
5883;BME280;2967;51.488;6.618;2022-10-04T23:48:55;101563.25;;;14.23;100.00
5883;BME280;2967;51.488;6.618;2022-10-04T23:53:59;101557.91;;;14.23;100.00
5883;BME280;2967;51.488;6.618;2022-10-04T23:59:02;101549.19;;;14.21;100.00
